sensor_id;sensor_type;location;lat;lon;timestamp;temperature;humidity
59301;DHT22;45073;52.740;6.784;2022-12-07T00:01:20;4.80;99.90
59301;DHT22;45073;52.740;6.784;2022-12-07T00:03:47;4.70;99.90
59301;DHT22;45073;52.740;6.784;2022-12-07T00:06:15;4.70;99.90
59301;DHT22;45073;52.740;6.784;2022-12-07T00:08:41;4.70;99.90
59301;DHT22;45073;52.740;6.784;2022-12-07T00:11:13;4.60;99.90
59301;DHT22;45073;52.740;6.784;2022-12-07T00:13:39;4.60;99.90
59301;DHT22;45073;52.740;6.784;2022-12-07T00:16:17;4.60;99.90
59301;DHT22;45073;52.740;6.784;2022-12-07T00:18:43;4.50;99.90
59301;DHT22;45073;52.740;6.784;2022-12-07T00:21:14;4.50;99.90
59301;DHT22;45073;52.740;6.784;2022-12-07T00:23:41;4.50;99.90
59301;DHT22;45073;52.740;6.784;2022-12-07T00:26:10;4.40;99.90
59301;DHT22;45073;52.740;6.784;2022-12-07T00:28:37;4.40;99.90
59301;DHT22;45073;52.740;6.784;2022-12-07T00:31:06;4.30;99.90
59301;DHT22;45073;52.740;6.784;2022-12-07T00:33:33;4.30;99.90
59301;DHT22;45073;52.740;6.784;2022-12-07T00:36:00;4.30;99.90
59301;DHT22;45073;52.740;6.784;2022-12-07T00:38:29;4.20;99.90
59301;DHT22;45073;52.740;6.784;2022-12-07T00:41:00;4.20;99.90
59301;DHT22;45073;52.740;6.784;2022-12-07T00:43:26;4.20;99.90
59301;DHT22;45073;52.740;6.784;2022-12-07T00:45:53;4.10;99.90
59301;DHT22;45073;52.740;6.784;2022-12-07T00:48:19;4.10;99.90
59301;DHT22;45073;52.740;6.784;2022-12-07T00:50:44;4.10;99.90
59301;DHT22;45073;52.740;6.784;2022-12-07T00:53:10;4.10;99.90
59301;DHT22;45073;52.740;6.784;2022-12-07T00:55:36;4.10;99.90
59301;DHT22;45073;52.740;6.784;2022-12-07T00:58:02;4.10;99.90
59301;DHT22;45073;52.740;6.784;2022-12-07T01:00:28;4.10;99.90
59301;DHT22;45073;52.740;6.784;2022-12-07T01:02:54;4.10;99.90
59301;DHT22;45073;52.740;6.784;2022-12-07T01:05:19;4.10;99.90
59301;DHT22;45073;52.740;6.784;2022-12-07T01:07:45;4.10;99.90
59301;DHT22;45073;52.740;6.784;2022-12-07T01:10:12;4.10;99.90
59301;DHT22;45073;52.740;6.784;2022-12-07T01:12:38;4.10;99.90
59301;DHT22;45073;52.740;6.784;2022-12-07T01:15:05;4.10;99.90
59301;DHT22;45073;52.740;6.784;2022-12-07T01:17:30;4.00;99.90
59301;DHT22;45073;52.740;6.784;2022-12-07T01:19:56;4.00;99.90
59301;DHT22;45073;52.740;6.784;2022-12-07T01:22:22;4.00;99.90
59301;DHT22;45073;52.740;6.784;2022-12-07T01:24:48;4.00;99.90
59301;DHT22;45073;52.740;6.784;2022-12-07T01:27:14;3.90;99.90
59301;DHT22;45073;52.740;6.784;2022-12-07T01:29:40;4.00;99.90
59301;DHT22;45073;52.740;6.784;2022-12-07T01:32:05;3.90;99.90
59301;DHT22;45073;52.740;6.784;2022-12-07T01:34:31;4.00;99.90
59301;DHT22;45073;52.740;6.784;2022-12-07T01:36:57;4.00;99.90
59301;DHT22;45073;52.740;6.784;2022-12-07T01:39:23;4.00;99.90
59301;DHT22;45073;52.740;6.784;2022-12-07T01:41:49;4.00;99.90
59301;DHT22;45073;52.740;6.784;2022-12-07T01:46:52;4.00;99.90
59301;DHT22;45073;52.740;6.784;2022-12-07T01:49:26;4.00;99.90
59301;DHT22;45073;52.740;6.784;2022-12-07T01:52:01;4.00;99.90
59301;DHT22;45073;52.740;6.784;2022-12-07T01:54:27;4.00;99.90
59301;DHT22;45073;52.740;6.784;2022-12-07T01:56:54;4.10;99.90
59301;DHT22;45073;52.740;6.784;2022-12-07T01:59:24;4.10;99.90
59301;DHT22;45073;52.740;6.784;2022-12-07T02:01:52;4.10;99.90
59301;DHT22;45073;52.740;6.784;2022-12-07T02:04:18;4.10;99.90
59301;DHT22;45073;52.740;6.784;2022-12-07T02:06:45;4.10;99.90
59301;DHT22;45073;52.740;6.784;2022-12-07T02:09:11;4.20;99.90
59301;DHT22;45073;52.740;6.784;2022-12-07T02:11:37;4.20;99.90
59301;DHT22;45073;52.740;6.784;2022-12-07T02:14:03;4.30;99.90
59301;DHT22;45073;52.740;6.784;2022-12-07T02:16:44;4.30;99.90
59301;DHT22;45073;52.740;6.784;2022-12-07T02:22:11;4.40;99.90
59301;DHT22;45073;52.740;6.784;2022-12-07T02:30:15;4.50;99.90
59301;DHT22;45073;52.740;6.784;2022-12-07T02:32:59;4.50;99.90
59301;DHT22;45073;52.740;6.784;2022-12-07T02:35:33;4.50;99.90
59301;DHT22;45073;52.740;6.784;2022-12-07T02:40:51;4.50;99.90
59301;DHT22;45073;52.740;6.784;2022-12-07T02:43:23;4.50;99.90
59301;DHT22;45073;52.740;6.784;2022-12-07T02:45:52;4.50;99.90
59301;DHT22;45073;52.740;6.784;2022-12-07T02:48:19;4.50;99.90
59301;DHT22;45073;52.740;6.784;2022-12-07T02:50:53;4.40;99.90
59301;DHT22;45073;52.740;6.784;2022-12-07T02:53:51;4.40;99.90
59301;DHT22;45073;52.740;6.784;2022-12-07T02:59:43;4.30;99.90
59301;DHT22;45073;52.740;6.784;2022-12-07T03:02:25;4.20;99.90
59301;DHT22;45073;52.740;6.784;2022-12-07T03:10:39;4.10;99.90
59301;DHT22;45073;52.740;6.784;2022-12-07T03:18:35;4.00;99.90
59301;DHT22;45073;52.740;6.784;2022-12-07T03:21:06;4.00;99.90
59301;DHT22;45073;52.740;6.784;2022-12-07T03:23:35;4.00;99.90
59301;DHT22;45073;52.740;6.784;2022-12-07T03:26:03;4.00;99.90
59301;DHT22;45073;52.740;6.784;2022-12-07T03:28:36;4.00;99.90
59301;DHT22;45073;52.740;6.784;2022-12-07T03:31:14;4.00;99.90
59301;DHT22;45073;52.740;6.784;2022-12-07T03:33:52;4.00;99.90
59301;DHT22;45073;52.740;6.784;2022-12-07T03:36:43;4.00;99.90
59301;DHT22;45073;52.740;6.784;2022-12-07T03:42:00;4.00;99.90
59301;DHT22;45073;52.740;6.784;2022-12-07T03:44:29;4.00;99.90
59301;DHT22;45073;52.740;6.784;2022-12-07T03:49:45;4.00;99.90
59301;DHT22;45073;52.740;6.784;2022-12-07T03:52:18;4.10;99.90
59301;DHT22;45073;52.740;6.784;2022-12-07T03:57:43;4.00;99.90
59301;DHT22;45073;52.740;6.784;2022-12-07T04:00:11;4.00;99.90
59301;DHT22;45073;52.740;6.784;2022-12-07T04:02:37;4.00;99.90
59301;DHT22;45073;52.740;6.784;2022-12-07T04:05:03;4.00;99.90
59301;DHT22;45073;52.740;6.784;2022-12-07T04:07:29;4.00;99.90
59301;DHT22;45073;52.740;6.784;2022-12-07T04:09:55;3.90;99.90
59301;DHT22;45073;52.740;6.784;2022-12-07T04:12:21;3.90;99.90
59301;DHT22;45073;52.740;6.784;2022-12-07T04:14:47;3.80;99.90
59301;DHT22;45073;52.740;6.784;2022-12-07T04:17:12;3.80;99.90
59301;DHT22;45073;52.740;6.784;2022-12-07T04:19:38;3.80;99.90
59301;DHT22;45073;52.740;6.784;2022-12-07T04:22:04;3.80;99.90
59301;DHT22;45073;52.740;6.784;2022-12-07T04:24:30;3.70;99.90
59301;DHT22;45073;52.740;6.784;2022-12-07T04:26:56;3.70;99.90
59301;DHT22;45073;52.740;6.784;2022-12-07T04:29:22;3.70;99.90
59301;DHT22;45073;52.740;6.784;2022-12-07T04:31:48;3.70;99.90
59301;DHT22;45073;52.740;6.784;2022-12-07T04:34:15;3.70;99.90
59301;DHT22;45073;52.740;6.784;2022-12-07T04:36:42;3.70;99.90
59301;DHT22;45073;52.740;6.784;2022-12-07T04:41:36;3.70;99.90
59301;DHT22;45073;52.740;6.784;2022-12-07T04:44:03;3.60;99.90
59301;DHT22;45073;52.740;6.784;2022-12-07T04:46:31;3.60;99.90
59301;DHT22;45073;52.740;6.784;2022-12-07T04:48:57;3.60;99.90
59301;DHT22;45073;52.740;6.784;2022-12-07T04:51:26;3.60;99.90
59301;DHT22;45073;52.740;6.784;2022-12-07T04:53:52;3.60;99.90
59301;DHT22;45073;52.740;6.784;2022-12-07T04:56:18;3.60;99.90
59301;DHT22;45073;52.740;6.784;2022-12-07T04:58:45;3.50;99.90
59301;DHT22;45073;52.740;6.784;2022-12-07T05:01:11;3.50;99.90
59301;DHT22;45073;52.740;6.784;2022-12-07T05:03:38;3.50;99.90
59301;DHT22;45073;52.740;6.784;2022-12-07T05:06:06;3.40;99.90
59301;DHT22;45073;52.740;6.784;2022-12-07T05:08:33;3.50;99.90
59301;DHT22;45073;52.740;6.784;2022-12-07T05:11:00;3.40;99.90
59301;DHT22;45073;52.740;6.784;2022-12-07T05:13:26;3.40;99.90
59301;DHT22;45073;52.740;6.784;2022-12-07T05:15:51;3.40;99.90
59301;DHT22;45073;52.740;6.784;2022-12-07T05:18:17;3.40;99.90
59301;DHT22;45073;52.740;6.784;2022-12-07T05:20:43;3.40;99.90
59301;DHT22;45073;52.740;6.784;2022-12-07T05:23:09;3.40;99.90
59301;DHT22;45073;52.740;6.784;2022-12-07T05:25:35;3.40;99.90
59301;DHT22;45073;52.740;6.784;2022-12-07T05:28:01;3.40;99.90
59301;DHT22;45073;52.740;6.784;2022-12-07T05:30:27;3.40;99.90
59301;DHT22;45073;52.740;6.784;2022-12-07T05:32:53;3.40;99.90
59301;DHT22;45073;52.740;6.784;2022-12-07T05:35:19;3.40;99.90
59301;DHT22;45073;52.740;6.784;2022-12-07T05:37:45;3.40;99.90
59301;DHT22;45073;52.740;6.784;2022-12-07T05:40:12;3.40;99.90
59301;DHT22;45073;52.740;6.784;2022-12-07T05:42:38;3.40;99.90
59301;DHT22;45073;52.740;6.784;2022-12-07T05:45:04;3.50;99.90
59301;DHT22;45073;52.740;6.784;2022-12-07T05:47:30;3.50;99.90
59301;DHT22;45073;52.740;6.784;2022-12-07T05:49:55;3.50;99.90
59301;DHT22;45073;52.740;6.784;2022-12-07T05:52:21;3.50;99.90
59301;DHT22;45073;52.740;6.784;2022-12-07T05:54:47;3.50;99.90
59301;DHT22;45073;52.740;6.784;2022-12-07T05:57:12;3.60;99.90
59301;DHT22;45073;52.740;6.784;2022-12-07T05:59:38;3.60;99.90
59301;DHT22;45073;52.740;6.784;2022-12-07T06:02:07;3.60;99.90
59301;DHT22;45073;52.740;6.784;2022-12-07T06:04:36;3.60;99.90
59301;DHT22;45073;52.740;6.784;2022-12-07T06:07:02;3.60;99.90
59301;DHT22;45073;52.740;6.784;2022-12-07T06:09:28;3.60;99.90
59301;DHT22;45073;52.740;6.784;2022-12-07T06:11:54;3.50;99.90
59301;DHT22;45073;52.740;6.784;2022-12-07T06:14:39;3.50;99.90
59301;DHT22;45073;52.740;6.784;2022-12-07T06:17:05;3.40;99.90
59301;DHT22;45073;52.740;6.784;2022-12-07T06:19:31;3.40;99.90
59301;DHT22;45073;52.740;6.784;2022-12-07T06:21:56;3.30;99.90
59301;DHT22;45073;52.740;6.784;2022-12-07T06:24:22;3.30;99.90
59301;DHT22;45073;52.740;6.784;2022-12-07T06:26:48;3.30;99.90
59301;DHT22;45073;52.740;6.784;2022-12-07T06:29:14;3.30;99.90
59301;DHT22;45073;52.740;6.784;2022-12-07T06:31:40;3.20;99.90
59301;DHT22;45073;52.740;6.784;2022-12-07T06:34:12;3.20;99.90
59301;DHT22;45073;52.740;6.784;2022-12-07T06:36:38;3.20;99.90
59301;DHT22;45073;52.740;6.784;2022-12-07T06:39:04;3.20;99.90
59301;DHT22;45073;52.740;6.784;2022-12-07T06:41:30;3.10;99.90
59301;DHT22;45073;52.740;6.784;2022-12-07T06:43:56;3.10;99.90
59301;DHT22;45073;52.740;6.784;2022-12-07T06:46:22;3.10;99.90
59301;DHT22;45073;52.740;6.784;2022-12-07T06:48:48;3.10;99.90
59301;DHT22;45073;52.740;6.784;2022-12-07T06:51:14;3.20;99.90
59301;DHT22;45073;52.740;6.784;2022-12-07T06:53:39;3.20;99.90
59301;DHT22;45073;52.740;6.784;2022-12-07T06:56:05;3.20;99.90
59301;DHT22;45073;52.740;6.784;2022-12-07T06:58:31;3.20;99.90
59301;DHT22;45073;52.740;6.784;2022-12-07T07:00:56;3.20;99.90
59301;DHT22;45073;52.740;6.784;2022-12-07T07:03:22;3.20;99.90
59301;DHT22;45073;52.740;6.784;2022-12-07T07:05:48;3.20;99.90
59301;DHT22;45073;52.740;6.784;2022-12-07T07:08:14;3.20;99.90
59301;DHT22;45073;52.740;6.784;2022-12-07T07:10:40;3.20;99.90
59301;DHT22;45073;52.740;6.784;2022-12-07T07:13:06;3.20;99.90
59301;DHT22;45073;52.740;6.784;2022-12-07T07:15:33;3.20;99.90
59301;DHT22;45073;52.740;6.784;2022-12-07T07:17:59;3.20;99.90
59301;DHT22;45073;52.740;6.784;2022-12-07T07:20:24;3.20;99.90
59301;DHT22;45073;52.740;6.784;2022-12-07T07:22:50;3.20;99.90
59301;DHT22;45073;52.740;6.784;2022-12-07T07:25:16;3.20;99.90
59301;DHT22;45073;52.740;6.784;2022-12-07T07:27:42;3.20;99.90
59301;DHT22;45073;52.740;6.784;2022-12-07T07:30:08;3.20;99.90
59301;DHT22;45073;52.740;6.784;2022-12-07T07:32:34;3.20;99.90
59301;DHT22;45073;52.740;6.784;2022-12-07T07:34:59;3.20;99.90
59301;DHT22;45073;52.740;6.784;2022-12-07T07:37:25;3.30;99.90
59301;DHT22;45073;52.740;6.784;2022-12-07T07:39:51;3.30;99.90
59301;DHT22;45073;52.740;6.784;2022-12-07T07:42:17;3.30;99.90
59301;DHT22;45073;52.740;6.784;2022-12-07T07:44:43;3.30;99.90
59301;DHT22;45073;52.740;6.784;2022-12-07T07:47:08;3.40;99.90
59301;DHT22;45073;52.740;6.784;2022-12-07T07:49:34;3.50;99.90
59301;DHT22;45073;52.740;6.784;2022-12-07T07:51:59;3.50;99.90
59301;DHT22;45073;52.740;6.784;2022-12-07T07:54:25;3.60;99.90
59301;DHT22;45073;52.740;6.784;2022-12-07T07:56:52;3.60;99.90
59301;DHT22;45073;52.740;6.784;2022-12-07T07:59:17;3.60;99.90
59301;DHT22;45073;52.740;6.784;2022-12-07T08:01:43;3.70;99.90
59301;DHT22;45073;52.740;6.784;2022-12-07T08:04:09;3.70;99.90
59301;DHT22;45073;52.740;6.784;2022-12-07T08:06:34;3.70;99.90
59301;DHT22;45073;52.740;6.784;2022-12-07T08:09:00;3.60;99.90
59301;DHT22;45073;52.740;6.784;2022-12-07T08:11:26;3.60;99.90
59301;DHT22;45073;52.740;6.784;2022-12-07T08:13:51;3.60;99.90
59301;DHT22;45073;52.740;6.784;2022-12-07T08:16:17;3.60;99.90
59301;DHT22;45073;52.740;6.784;2022-12-07T08:18:43;3.60;99.90
59301;DHT22;45073;52.740;6.784;2022-12-07T08:21:11;3.60;99.90
59301;DHT22;45073;52.740;6.784;2022-12-07T08:23:37;3.60;99.90
59301;DHT22;45073;52.740;6.784;2022-12-07T08:26:05;3.60;99.90
59301;DHT22;45073;52.740;6.784;2022-12-07T08:28:31;3.60;99.90
59301;DHT22;45073;52.740;6.784;2022-12-07T08:31:03;3.70;99.90
59301;DHT22;45073;52.740;6.784;2022-12-07T08:33:29;3.70;99.90
59301;DHT22;45073;52.740;6.784;2022-12-07T08:36:03;3.70;99.90
59301;DHT22;45073;52.740;6.784;2022-12-07T08:38:29;3.70;99.90
59301;DHT22;45073;52.740;6.784;2022-12-07T08:40:58;3.80;99.90
59301;DHT22;45073;52.740;6.784;2022-12-07T08:43:25;3.80;99.90
59301;DHT22;45073;52.740;6.784;2022-12-07T08:46:01;3.80;99.90
59301;DHT22;45073;52.740;6.784;2022-12-07T08:48:30;3.90;99.90
59301;DHT22;45073;52.740;6.784;2022-12-07T08:50:56;3.90;99.90
59301;DHT22;45073;52.740;6.784;2022-12-07T08:53:22;3.90;99.90
59301;DHT22;45073;52.740;6.784;2022-12-07T08:55:48;3.80;99.90
59301;DHT22;45073;52.740;6.784;2022-12-07T08:58:14;3.80;99.90
59301;DHT22;45073;52.740;6.784;2022-12-07T09:00:39;3.80;99.90
59301;DHT22;45073;52.740;6.784;2022-12-07T09:03:05;3.80;99.90
59301;DHT22;45073;52.740;6.784;2022-12-07T09:05:32;3.80;99.90
59301;DHT22;45073;52.740;6.784;2022-12-07T09:08:00;3.80;99.90
59301;DHT22;45073;52.740;6.784;2022-12-07T09:10:27;3.80;99.90
59301;DHT22;45073;52.740;6.784;2022-12-07T09:12:53;3.90;99.90
59301;DHT22;45073;52.740;6.784;2022-12-07T09:15:19;4.00;99.90
59301;DHT22;45073;52.740;6.784;2022-12-07T09:17:44;4.10;99.90
59301;DHT22;45073;52.740;6.784;2022-12-07T09:20:10;4.20;99.90
59301;DHT22;45073;52.740;6.784;2022-12-07T09:22:37;4.40;99.90
59301;DHT22;45073;52.740;6.784;2022-12-07T09:25:03;4.40;99.90
59301;DHT22;45073;52.740;6.784;2022-12-07T09:27:29;4.50;99.90
59301;DHT22;45073;52.740;6.784;2022-12-07T09:29:55;4.50;99.90
59301;DHT22;45073;52.740;6.784;2022-12-07T09:32:21;4.60;99.90
59301;DHT22;45073;52.740;6.784;2022-12-07T09:34:47;4.50;99.90
59301;DHT22;45073;52.740;6.784;2022-12-07T09:37:12;4.60;99.90
59301;DHT22;45073;52.740;6.784;2022-12-07T09:39:39;4.60;99.90
59301;DHT22;45073;52.740;6.784;2022-12-07T09:42:06;4.60;99.90
59301;DHT22;45073;52.740;6.784;2022-12-07T09:44:33;4.70;99.90
59301;DHT22;45073;52.740;6.784;2022-12-07T09:47:00;4.70;99.90
59301;DHT22;45073;52.740;6.784;2022-12-07T09:49:29;4.70;99.90
59301;DHT22;45073;52.740;6.784;2022-12-07T09:54:44;4.70;99.90
59301;DHT22;45073;52.740;6.784;2022-12-07T09:57:11;4.80;99.90
59301;DHT22;45073;52.740;6.784;2022-12-07T09:59:38;4.80;99.90
59301;DHT22;45073;52.740;6.784;2022-12-07T10:02:35;5.00;99.90
59301;DHT22;45073;52.740;6.784;2022-12-07T10:05:04;5.10;99.90
59301;DHT22;45073;52.740;6.784;2022-12-07T10:07:30;5.30;99.90
59301;DHT22;45073;52.740;6.784;2022-12-07T10:09:55;5.40;99.90
59301;DHT22;45073;52.740;6.784;2022-12-07T10:12:21;5.50;99.90
59301;DHT22;45073;52.740;6.784;2022-12-07T10:15:01;5.50;99.90
59301;DHT22;45073;52.740;6.784;2022-12-07T10:17:51;5.60;99.90
59301;DHT22;45073;52.740;6.784;2022-12-07T10:23:05;5.60;99.90
59301;DHT22;45073;52.740;6.784;2022-12-07T10:25:36;5.60;99.90
59301;DHT22;45073;52.740;6.784;2022-12-07T10:28:11;5.60;99.90
59301;DHT22;45073;52.740;6.784;2022-12-07T10:33:30;5.60;99.90
59301;DHT22;45073;52.740;6.784;2022-12-07T10:35:56;5.70;99.90
59301;DHT22;45073;52.740;6.784;2022-12-07T10:38:22;5.70;99.90
59301;DHT22;45073;52.740;6.784;2022-12-07T10:41:03;5.70;99.90
59301;DHT22;45073;52.740;6.784;2022-12-07T10:43:29;5.70;99.90
59301;DHT22;45073;52.740;6.784;2022-12-07T10:46:15;5.70;99.90
59301;DHT22;45073;52.740;6.784;2022-12-07T10:49:02;5.70;99.90
59301;DHT22;45073;52.740;6.784;2022-12-07T10:51:55;5.70;99.90
59301;DHT22;45073;52.740;6.784;2022-12-07T11:11:01;6.20;99.90
59301;DHT22;45073;52.740;6.784;2022-12-07T11:14:28;6.20;99.90
59301;DHT22;45073;52.740;6.784;2022-12-07T11:19:28;6.50;99.90
59301;DHT22;45073;52.740;6.784;2022-12-07T11:22:03;6.70;99.90
59301;DHT22;45073;52.740;6.784;2022-12-07T11:24:41;6.80;99.90
59301;DHT22;45073;52.740;6.784;2022-12-07T11:27:13;6.80;99.90
59301;DHT22;45073;52.740;6.784;2022-12-07T11:38:09;7.00;99.90
59301;DHT22;45073;52.740;6.784;2022-12-07T11:40:36;7.00;99.90
59301;DHT22;45073;52.740;6.784;2022-12-07T11:45:44;6.90;99.90
59301;DHT22;45073;52.740;6.784;2022-12-07T11:48:23;7.00;99.90
59301;DHT22;45073;52.740;6.784;2022-12-07T11:50:53;7.00;99.90
59301;DHT22;45073;52.740;6.784;2022-12-07T11:53:25;7.10;99.90
59301;DHT22;45073;52.740;6.784;2022-12-07T11:56:11;7.10;99.90
59301;DHT22;45073;52.740;6.784;2022-12-07T12:06:41;7.60;99.90
59301;DHT22;45073;52.740;6.784;2022-12-07T12:09:24;7.80;99.90
59301;DHT22;45073;52.740;6.784;2022-12-07T12:12:26;7.90;99.90
59301;DHT22;45073;52.740;6.784;2022-12-07T12:15:20;8.20;99.90
59301;DHT22;45073;52.740;6.784;2022-12-07T12:20:42;10.10;99.90
59301;DHT22;45073;52.740;6.784;2022-12-07T12:25:45;12.00;99.90
59301;DHT22;45073;52.740;6.784;2022-12-07T12:28:27;13.00;99.90
59301;DHT22;45073;52.740;6.784;2022-12-07T12:31:13;13.90;91.50
59301;DHT22;45073;52.740;6.784;2022-12-07T12:33:45;13.90;90.80
59301;DHT22;45073;52.740;6.784;2022-12-07T12:46:47;12.00;92.70
59301;DHT22;45073;52.740;6.784;2022-12-07T12:55:01;10.90;93.80
59301;DHT22;45073;52.740;6.784;2022-12-07T12:57:30;10.40;96.10
59301;DHT22;45073;52.740;6.784;2022-12-07T13:00:00;10.10;99.60
59301;DHT22;45073;52.740;6.784;2022-12-07T13:02:33;10.10;99.90
59301;DHT22;45073;52.740;6.784;2022-12-07T13:29:16;9.80;99.90
59301;DHT22;45073;52.740;6.784;2022-12-07T13:34:39;9.70;99.90
59301;DHT22;45073;52.740;6.784;2022-12-07T13:37:28;9.40;99.20
59301;DHT22;45073;52.740;6.784;2022-12-07T13:39:59;9.40;99.90
59301;DHT22;45073;52.740;6.784;2022-12-07T13:42:33;9.40;99.90
59301;DHT22;45073;52.740;6.784;2022-12-07T13:45:14;9.10;99.90
59301;DHT22;45073;52.740;6.784;2022-12-07T13:47:49;9.00;99.90
59301;DHT22;45073;52.740;6.784;2022-12-07T13:50:25;8.90;99.90
59301;DHT22;45073;52.740;6.784;2022-12-07T13:52:55;8.80;99.90
59301;DHT22;45073;52.740;6.784;2022-12-07T13:55:21;8.70;99.90
59301;DHT22;45073;52.740;6.784;2022-12-07T13:57:50;8.60;99.90
59301;DHT22;45073;52.740;6.784;2022-12-07T14:00:25;8.40;99.90
59301;DHT22;45073;52.740;6.784;2022-12-07T14:02:58;8.10;99.90
59301;DHT22;45073;52.740;6.784;2022-12-07T14:05:31;7.80;99.90
59301;DHT22;45073;52.740;6.784;2022-12-07T14:08:02;7.60;99.90
59301;DHT22;45073;52.740;6.784;2022-12-07T14:10:36;7.30;99.90
59301;DHT22;45073;52.740;6.784;2022-12-07T14:13:04;7.10;99.90
59301;DHT22;45073;52.740;6.784;2022-12-07T14:15:50;6.90;99.90
59301;DHT22;45073;52.740;6.784;2022-12-07T14:18:36;6.60;99.90
59301;DHT22;45073;52.740;6.784;2022-12-07T14:23:35;6.30;99.90
59301;DHT22;45073;52.740;6.784;2022-12-07T14:26:14;6.20;99.90
59301;DHT22;45073;52.740;6.784;2022-12-07T14:28:40;6.10;99.90
59301;DHT22;45073;52.740;6.784;2022-12-07T14:31:13;6.00;99.90
59301;DHT22;45073;52.740;6.784;2022-12-07T14:33:40;5.90;99.90
59301;DHT22;45073;52.740;6.784;2022-12-07T14:36:08;5.90;99.90
59301;DHT22;45073;52.740;6.784;2022-12-07T14:38:34;5.80;99.90
59301;DHT22;45073;52.740;6.784;2022-12-07T14:41:00;5.80;99.90
59301;DHT22;45073;52.740;6.784;2022-12-07T14:43:44;5.80;99.90
59301;DHT22;45073;52.740;6.784;2022-12-07T14:46:10;5.80;99.90
59301;DHT22;45073;52.740;6.784;2022-12-07T14:48:35;5.70;99.90
59301;DHT22;45073;52.740;6.784;2022-12-07T14:51:01;5.70;99.90
59301;DHT22;45073;52.740;6.784;2022-12-07T14:53:30;5.70;99.90
59301;DHT22;45073;52.740;6.784;2022-12-07T14:55:57;5.60;99.90
59301;DHT22;45073;52.740;6.784;2022-12-07T14:58:23;5.60;99.90
59301;DHT22;45073;52.740;6.784;2022-12-07T15:00:48;5.50;99.90
59301;DHT22;45073;52.740;6.784;2022-12-07T15:03:14;5.50;99.90
59301;DHT22;45073;52.740;6.784;2022-12-07T15:05:40;5.50;99.90
59301;DHT22;45073;52.740;6.784;2022-12-07T15:08:06;5.50;99.90
59301;DHT22;45073;52.740;6.784;2022-12-07T15:10:34;5.40;99.90
59301;DHT22;45073;52.740;6.784;2022-12-07T15:13:04;5.40;99.90
59301;DHT22;45073;52.740;6.784;2022-12-07T15:15:49;5.40;99.90
59301;DHT22;45073;52.740;6.784;2022-12-07T15:18:15;5.40;99.90
59301;DHT22;45073;52.740;6.784;2022-12-07T15:20:41;5.30;99.90
59301;DHT22;45073;52.740;6.784;2022-12-07T15:23:06;5.30;99.90
59301;DHT22;45073;52.740;6.784;2022-12-07T15:25:32;5.30;99.90
59301;DHT22;45073;52.740;6.784;2022-12-07T15:27:58;5.30;99.90
59301;DHT22;45073;52.740;6.784;2022-12-07T15:30:23;5.30;99.90
59301;DHT22;45073;52.740;6.784;2022-12-07T15:32:50;5.20;99.90
59301;DHT22;45073;52.740;6.784;2022-12-07T15:35:16;5.20;99.90
59301;DHT22;45073;52.740;6.784;2022-12-07T15:37:41;5.20;99.90
59301;DHT22;45073;52.740;6.784;2022-12-07T15:40:08;5.30;99.90
59301;DHT22;45073;52.740;6.784;2022-12-07T15:42:34;5.30;99.90
59301;DHT22;45073;52.740;6.784;2022-12-07T15:45:00;5.20;99.90
59301;DHT22;45073;52.740;6.784;2022-12-07T15:47:36;5.20;99.90
59301;DHT22;45073;52.740;6.784;2022-12-07T15:50:04;5.20;99.90
59301;DHT22;45073;52.740;6.784;2022-12-07T15:52:30;5.20;99.90
59301;DHT22;45073;52.740;6.784;2022-12-07T15:54:55;5.20;99.90
59301;DHT22;45073;52.740;6.784;2022-12-07T15:57:21;5.10;99.90
59301;DHT22;45073;52.740;6.784;2022-12-07T15:59:47;5.20;99.90
59301;DHT22;45073;52.740;6.784;2022-12-07T16:02:12;5.20;99.90
59301;DHT22;45073;52.740;6.784;2022-12-07T16:04:38;5.10;99.90
59301;DHT22;45073;52.740;6.784;2022-12-07T16:07:04;5.10;99.90
59301;DHT22;45073;52.740;6.784;2022-12-07T16:09:29;5.10;99.90
59301;DHT22;45073;52.740;6.784;2022-12-07T16:11:55;5.10;99.90
59301;DHT22;45073;52.740;6.784;2022-12-07T16:14:21;5.10;99.90
59301;DHT22;45073;52.740;6.784;2022-12-07T16:16:47;5.10;99.90
59301;DHT22;45073;52.740;6.784;2022-12-07T16:19:12;5.10;99.90
59301;DHT22;45073;52.740;6.784;2022-12-07T16:21:38;5.00;99.90
59301;DHT22;45073;52.740;6.784;2022-12-07T16:24:04;5.00;99.90
59301;DHT22;45073;52.740;6.784;2022-12-07T16:26:31;5.00;99.90
59301;DHT22;45073;52.740;6.784;2022-12-07T16:28:57;4.90;99.90
59301;DHT22;45073;52.740;6.784;2022-12-07T16:31:25;4.90;99.90
59301;DHT22;45073;52.740;6.784;2022-12-07T16:33:53;4.90;99.90
59301;DHT22;45073;52.740;6.784;2022-12-07T16:36:20;4.80;99.90
59301;DHT22;45073;52.740;6.784;2022-12-07T16:38:47;4.80;99.90
59301;DHT22;45073;52.740;6.784;2022-12-07T16:41:13;4.80;99.90
59301;DHT22;45073;52.740;6.784;2022-12-07T16:43:39;4.80;99.90
59301;DHT22;45073;52.740;6.784;2022-12-07T16:46:05;4.80;99.90
59301;DHT22;45073;52.740;6.784;2022-12-07T16:48:31;4.80;99.90
59301;DHT22;45073;52.740;6.784;2022-12-07T16:50:56;4.80;99.90
59301;DHT22;45073;52.740;6.784;2022-12-07T16:53:23;4.80;99.90
59301;DHT22;45073;52.740;6.784;2022-12-07T16:55:49;4.80;99.90
59301;DHT22;45073;52.740;6.784;2022-12-07T16:58:16;4.80;99.90
59301;DHT22;45073;52.740;6.784;2022-12-07T17:00:43;4.80;99.90
59301;DHT22;45073;52.740;6.784;2022-12-07T17:03:09;4.80;99.90
59301;DHT22;45073;52.740;6.784;2022-12-07T17:05:40;4.80;99.90
59301;DHT22;45073;52.740;6.784;2022-12-07T17:08:07;4.80;99.90
59301;DHT22;45073;52.740;6.784;2022-12-07T17:10:34;4.70;99.90
59301;DHT22;45073;52.740;6.784;2022-12-07T17:13:01;4.70;99.90
59301;DHT22;45073;52.740;6.784;2022-12-07T17:15:27;4.70;99.90
59301;DHT22;45073;52.740;6.784;2022-12-07T17:17:57;4.60;99.90
59301;DHT22;45073;52.740;6.784;2022-12-07T17:20:25;4.60;99.90
59301;DHT22;45073;52.740;6.784;2022-12-07T17:22:51;4.60;99.90
59301;DHT22;45073;52.740;6.784;2022-12-07T17:25:17;4.60;99.90
59301;DHT22;45073;52.740;6.784;2022-12-07T17:27:45;4.60;99.90
59301;DHT22;45073;52.740;6.784;2022-12-07T17:30:12;4.60;99.90
59301;DHT22;45073;52.740;6.784;2022-12-07T17:32:38;4.50;99.90
59301;DHT22;45073;52.740;6.784;2022-12-07T17:35:04;4.50;99.90
59301;DHT22;45073;52.740;6.784;2022-12-07T17:37:31;4.50;99.90
59301;DHT22;45073;52.740;6.784;2022-12-07T17:39:57;4.50;99.90
59301;DHT22;45073;52.740;6.784;2022-12-07T17:42:26;4.40;99.90
59301;DHT22;45073;52.740;6.784;2022-12-07T17:45:01;4.40;99.90
59301;DHT22;45073;52.740;6.784;2022-12-07T17:47:27;4.40;99.90
59301;DHT22;45073;52.740;6.784;2022-12-07T17:49:53;4.40;99.90
59301;DHT22;45073;52.740;6.784;2022-12-07T17:52:19;4.40;99.90
59301;DHT22;45073;52.740;6.784;2022-12-07T17:55:03;4.30;99.90
59301;DHT22;45073;52.740;6.784;2022-12-07T17:57:29;4.30;99.90
59301;DHT22;45073;52.740;6.784;2022-12-07T17:59:54;4.20;99.90
59301;DHT22;45073;52.740;6.784;2022-12-07T18:02:20;4.20;99.90
59301;DHT22;45073;52.740;6.784;2022-12-07T18:04:46;4.20;99.90
59301;DHT22;45073;52.740;6.784;2022-12-07T18:07:12;4.10;99.90
59301;DHT22;45073;52.740;6.784;2022-12-07T18:09:38;4.10;99.90
59301;DHT22;45073;52.740;6.784;2022-12-07T18:12:04;4.10;99.90